createdAt,value
2024-02-08T00:01:39.118Z,88.82
2024-02-08T00:04:05.857Z,89.58
2024-02-08T00:06:33.252Z,89.22
2024-02-08T00:09:03.191Z,89.82
2024-02-08T00:11:29.669Z,89.37
2024-02-08T00:13:56.218Z,89.27
2024-02-08T00:16:22.661Z,89.39
2024-02-08T00:18:49.054Z,89.65
2024-02-08T00:21:15.873Z,89.31
2024-02-08T00:23:42.310Z,89.42
2024-02-08T00:26:08.862Z,89.39
2024-02-08T00:28:35.237Z,89.67
2024-02-08T00:31:01.779Z,89.46
2024-02-08T00:33:28.112Z,89.57
2024-02-08T00:35:54.627Z,89.48
2024-02-08T00:38:21.085Z,89.74
2024-02-08T00:40:48.345Z,89.95
2024-02-08T00:43:14.646Z,90.15
2024-02-08T00:45:41.119Z,89.55
2024-02-08T00:48:07.500Z,89.76
2024-02-08T00:50:34.022Z,89.24
2024-02-08T00:53:01.704Z,89.75
2024-02-08T00:55:31.479Z,89.74
2024-02-08T00:57:57.858Z,89.40
2024-02-08T01:00:24.436Z,90.09
2024-02-08T01:02:50.938Z,89.46
2024-02-08T01:05:17.599Z,89.14
2024-02-08T01:07:44.262Z,89.17
2024-02-08T01:10:10.586Z,89.67
2024-02-08T01:12:37.104Z,90.09
2024-02-08T01:15:05.718Z,89.60
2024-02-08T01:17:33.281Z,90.29
2024-02-08T01:20:02.860Z,89.90
2024-02-08T01:22:29.774Z,90.97
2024-02-08T01:24:56.564Z,90.69
2024-02-08T01:27:23.085Z,91.57
2024-02-08T01:29:50.635Z,88.53
2024-02-08T01:32:17.727Z,89.87
2024-02-08T01:34:47.386Z,89.20
2024-02-08T01:37:14.393Z,88.70
2024-02-08T01:39:41.367Z,88.88
2024-02-08T01:42:14.672Z,88.99
2024-02-08T01:44:46.504Z,89.55
2024-02-08T01:47:13.625Z,90.61
2024-02-08T01:49:40.458Z,89.07
2024-02-08T01:52:07.215Z,89.25
2024-02-08T01:54:33.741Z,88.90
2024-02-08T01:57:00.634Z,90.21
2024-02-08T01:59:28.837Z,89.00
2024-02-08T02:01:57.352Z,88.84
2024-02-08T02:04:24.145Z,88.81
2024-02-08T02:06:50.706Z,89.15
2024-02-08T02:09:27.204Z,89.43
2024-02-08T02:11:56.497Z,89.03
2024-02-08T02:14:30.098Z,89.63
2024-02-08T02:17:08.754Z,89.39
2024-02-08T02:19:35.514Z,89.13
2024-02-08T02:22:02.134Z,89.87
2024-02-08T02:24:28.761Z,89.84
2024-02-08T02:26:58.600Z,88.66
2024-02-08T02:29:28.047Z,88.77
2024-02-08T02:31:54.373Z,88.71
2024-02-08T02:34:27.289Z,88.63
2024-02-08T02:36:59.621Z,89.51
2024-02-08T02:39:29.549Z,89.91
2024-02-08T02:41:56.283Z,87.88
2024-02-08T02:44:22.640Z,89.33
2024-02-08T02:46:50.966Z,88.35
2024-02-08T02:49:22.152Z,88.64
2024-02-08T02:51:49.933Z,89.47
2024-02-08T02:54:17.189Z,88.99
2024-02-08T02:56:48.879Z,89.19
2024-02-08T02:59:18.896Z,89.07
2024-02-08T03:01:50.742Z,88.07
2024-02-08T03:04:17.672Z,89.04
2024-02-08T03:06:46.366Z,88.74
2024-02-08T03:09:24.612Z,89.51
2024-02-08T03:11:51.485Z,89.65
2024-02-08T03:14:20.700Z,88.39
2024-02-08T03:16:47.392Z,89.39
2024-02-08T03:19:14.151Z,88.84
2024-02-08T03:21:41.641Z,89.22
2024-02-08T03:24:09.300Z,88.97
2024-02-08T03:26:46.454Z,90.32
2024-02-08T03:29:13.162Z,88.97
2024-02-08T03:31:46.818Z,88.52
2024-02-08T03:34:31.044Z,88.31
2024-02-08T03:36:58.356Z,88.04
2024-02-08T03:39:28.224Z,89.00
2024-02-08T03:42:08.421Z,88.74
2024-02-08T03:44:35.292Z,88.91
2024-02-08T03:47:04.871Z,88.51
2024-02-08T03:49:37.359Z,88.39
2024-02-08T03:52:04.455Z,87.91
2024-02-08T03:54:34.534Z,88.50
2024-02-08T03:57:00.855Z,88.93
2024-02-08T03:59:27.470Z,88.08
2024-02-08T04:02:04.651Z,88.63
2024-02-08T04:04:51.392Z,88.23
2024-02-08T04:07:38.232Z,88.29
2024-02-08T04:10:23.472Z,88.49
2024-02-08T04:13:08.335Z,88.64
2024-02-08T04:15:53.855Z,88.29
2024-02-08T04:18:39.722Z,88.91
2024-02-08T04:21:24.813Z,88.82
2024-02-08T04:24:09.728Z,88.74
2024-02-08T04:26:54.837Z,88.93
2024-02-08T04:29:39.538Z,88.88
2024-02-08T04:32:24.966Z,89.08
2024-02-08T04:35:10.285Z,89.24
2024-02-08T04:37:56.057Z,89.25
2024-02-08T04:40:40.909Z,88.57
2024-02-08T04:43:25.947Z,89.23
2024-02-08T04:46:10.936Z,88.46
2024-02-08T04:48:55.757Z,89.09
2024-02-08T04:51:40.526Z,89.35
2024-02-08T04:54:10.550Z,89.45
2024-02-08T04:56:37.125Z,88.80
2024-02-08T04:59:20.506Z,89.20
2024-02-08T05:01:51.096Z,89.62
2024-02-08T05:04:19.660Z,89.19
2024-02-08T05:06:46.971Z,89.72
2024-02-08T05:09:16.920Z,89.40
2024-02-08T05:11:44.652Z,89.14
2024-02-08T05:14:11.197Z,89.40
2024-02-08T05:16:38.775Z,89.63
2024-02-08T05:19:05.623Z,90.04
2024-02-08T05:21:32.976Z,89.80
2024-02-08T05:23:59.839Z,89.69
2024-02-08T05:26:26.990Z,89.11
2024-02-08T05:28:59.000Z,89.46
2024-02-08T05:31:28.269Z,89.50
2024-02-08T05:33:58.711Z,89.56
2024-02-08T05:36:25.660Z,89.75
2024-02-08T05:38:58.057Z,89.68
2024-02-08T05:41:24.861Z,89.52
2024-02-08T05:43:53.054Z,89.97
2024-02-08T05:46:26.965Z,89.92
2024-02-08T05:48:53.870Z,89.90
2024-02-08T05:51:21.989Z,90.48
2024-02-08T05:53:49.132Z,90.49
2024-02-08T05:56:22.775Z,90.01
2024-02-08T05:58:52.881Z,90.06
2024-02-08T06:01:24.114Z,89.93
2024-02-08T06:03:51.012Z,89.82
2024-02-08T06:06:19.298Z,90.08
2024-02-08T06:08:47.723Z,89.71
2024-02-08T06:11:21.404Z,89.84
2024-02-08T06:14:00.312Z,90.09
2024-02-08T06:16:50.407Z,88.97
2024-02-08T06:19:18.821Z,89.46
2024-02-08T06:21:47.405Z,89.53
2024-02-08T06:24:23.590Z,88.77
2024-02-08T06:26:57.349Z,88.88
2024-02-08T06:29:28.593Z,88.94
2024-02-08T06:32:03.903Z,89.37
2024-02-08T06:34:43.893Z,89.72
2024-02-08T06:37:31.001Z,89.56
2024-02-08T06:39:58.876Z,90.01
2024-02-08T06:42:38.852Z,89.23
2024-02-08T06:45:24.039Z,89.48
2024-02-08T06:47:58.299Z,90.22
2024-02-08T06:50:43.651Z,89.78
2024-02-08T06:53:28.317Z,90.10
2024-02-08T06:56:13.338Z,89.60
2024-02-08T06:59:00.856Z,89.87
2024-02-08T07:01:46.582Z,90.51
2024-02-08T07:04:31.750Z,90.34
2024-02-08T07:07:16.907Z,90.36
2024-02-08T07:10:02.036Z,90.62
2024-02-08T07:12:47.294Z,90.58
2024-02-08T07:15:32.182Z,90.46
2024-02-08T07:18:17.402Z,90.67
2024-02-08T07:21:02.181Z,91.13
2024-02-08T07:23:47.176Z,90.93
2024-02-08T07:26:35.415Z,91.22
2024-02-08T07:29:20.934Z,91.09
2024-02-08T07:32:05.842Z,90.04
2024-02-08T07:34:51.941Z,90.35
2024-02-08T07:37:26.905Z,90.21
2024-02-08T07:40:02.404Z,90.90
2024-02-08T07:42:43.466Z,90.81
2024-02-08T07:45:13.987Z,90.63
2024-02-08T07:47:40.942Z,90.44
2024-02-08T07:50:11.365Z,89.77
2024-02-08T07:52:48.006Z,89.59
2024-02-08T07:55:44.000Z,89.81
2024-02-08T07:58:10.363Z,90.45
2024-02-08T08:00:39.900Z,89.28
2024-02-08T08:03:17.491Z,90.36
2024-02-08T08:05:45.842Z,89.93
2024-02-08T08:08:25.593Z,90.41
2024-02-08T08:11:05.143Z,88.98
2024-02-08T08:13:53.530Z,88.94
2024-02-08T08:16:32.843Z,88.52
2024-02-08T08:19:00.648Z,89.49
2024-02-08T08:21:27.994Z,89.79
2024-02-08T08:24:03.956Z,89.95
2024-02-08T08:26:40.390Z,89.15
2024-02-08T08:29:14.837Z,89.49
2024-02-08T08:31:53.615Z,88.20
2024-02-08T08:34:23.903Z,88.58
2024-02-08T08:37:03.533Z,87.65
2024-02-08T08:40:09.527Z,87.49
2024-02-08T08:42:35.998Z,87.18
2024-02-08T08:45:06.433Z,87.64
2024-02-08T08:47:32.820Z,86.70
2024-02-08T08:49:59.626Z,87.84
2024-02-08T08:52:26.440Z,87.95
2024-02-08T08:55:14.201Z,87.14
2024-02-08T08:57:40.780Z,87.88
2024-02-08T09:00:10.500Z,87.48
2024-02-08T09:02:41.920Z,87.56
2024-02-08T09:05:18.586Z,87.34
2024-02-08T09:07:48.420Z,86.81
2024-02-08T09:10:17.656Z,86.81
2024-02-08T09:13:01.529Z,86.68
2024-02-08T09:15:29.325Z,86.02
2024-02-08T09:18:10.323Z,86.36
2024-02-08T09:20:38.767Z,85.35
2024-02-08T09:23:14.351Z,85.82
2024-02-08T09:25:47.677Z,85.75
2024-02-08T09:28:37.477Z,85.48
2024-02-08T09:31:14.151Z,85.23
2024-02-08T09:33:49.617Z,85.55
2024-02-08T09:36:16.267Z,84.53
2024-02-08T09:38:47.477Z,85.44
2024-02-08T09:41:21.261Z,84.35
2024-02-08T09:43:49.048Z,85.64
2024-02-08T09:46:35.140Z,85.40
2024-02-08T09:49:23.177Z,85.25
2024-02-08T09:51:57.047Z,85.39
2024-02-08T09:54:32.070Z,84.47
2024-02-08T09:57:24.224Z,83.77
2024-02-08T10:00:08.836Z,84.41
2024-02-08T10:02:38.173Z,83.05
2024-02-08T10:05:23.194Z,83.18
2024-02-08T10:08:07.433Z,83.59
2024-02-08T10:10:39.759Z,82.92
2024-02-08T10:13:07.376Z,82.83
2024-02-08T10:15:45.719Z,82.33
2024-02-08T10:18:15.362Z,82.96
2024-02-08T10:20:47.496Z,82.47
2024-02-08T10:23:34.990Z,81.90
2024-02-08T10:26:20.375Z,80.51
2024-02-08T10:28:48.347Z,81.91
2024-02-08T10:31:20.089Z,81.51
2024-02-08T10:33:50.276Z,81.10
2024-02-08T10:36:19.160Z,82.11
2024-02-08T10:39:03.978Z,83.77
2024-02-08T10:41:40.264Z,81.97
2024-02-08T10:44:07.990Z,82.24
2024-02-08T10:46:35.124Z,80.82
2024-02-08T10:49:02.445Z,80.93
2024-02-08T10:51:29.528Z,81.14
2024-02-08T10:54:15.586Z,79.61
2024-02-08T10:56:46.578Z,78.13
2024-02-08T10:59:25.053Z,79.86
2024-02-08T11:01:52.378Z,81.02
2024-02-08T11:04:19.964Z,82.51
2024-02-08T11:06:56.589Z,79.98
2024-02-08T11:09:23.312Z,81.12
2024-02-08T11:12:00.849Z,79.09
2024-02-08T11:14:29.370Z,78.05
2024-02-08T11:16:56.452Z,76.85
2024-02-08T11:19:23.837Z,79.16
2024-02-08T11:21:53.611Z,80.75
2024-02-08T11:24:30.077Z,75.96
2024-02-08T11:26:59.659Z,81.41
2024-02-08T11:29:28.028Z,83.20
2024-02-08T11:31:57.162Z,83.78
2024-02-08T11:34:35.216Z,82.38
2024-02-08T11:37:17.822Z,81.78
2024-02-08T11:39:48.334Z,81.53
2024-02-08T11:42:18.436Z,80.80
2024-02-08T11:44:45.871Z,80.20
2024-02-08T11:47:19.692Z,83.44
2024-02-08T11:50:05.017Z,81.68
2024-02-08T11:52:32.675Z,79.34
2024-02-08T11:55:10.877Z,83.06
2024-02-08T11:57:38.559Z,80.06
2024-02-08T12:00:16.409Z,78.90
2024-02-08T12:02:49.023Z,76.10
2024-02-08T12:05:17.126Z,80.35
2024-02-08T12:07:47.229Z,78.24
2024-02-08T12:10:16.186Z,77.68
2024-02-08T12:12:46.047Z,77.91
2024-02-08T12:15:16.112Z,80.91
2024-02-08T12:17:49.663Z,75.72
2024-02-08T12:20:16.834Z,80.55
2024-02-08T12:22:43.333Z,81.28
2024-02-08T12:25:16.762Z,80.64
2024-02-08T12:27:49.246Z,81.41
2024-02-08T12:30:22.322Z,80.52
2024-02-08T12:32:52.112Z,81.26
2024-02-08T12:35:22.340Z,80.47
2024-02-08T12:37:49.953Z,79.91
2024-02-08T12:40:18.015Z,80.74
2024-02-08T12:42:44.532Z,80.99
2024-02-08T12:45:13.584Z,81.17
2024-02-08T12:47:40.504Z,81.14
2024-02-08T12:50:18.051Z,80.73
2024-02-08T12:52:56.017Z,81.24
2024-02-08T12:55:30.717Z,80.85
2024-02-08T12:58:03.577Z,81.77
2024-02-08T13:00:38.682Z,80.61
2024-02-08T13:03:10.246Z,81.66
2024-02-08T13:05:37.722Z,82.27
2024-02-08T13:08:04.748Z,82.05
2024-02-08T13:10:35.257Z,81.29
2024-02-08T13:13:05.565Z,82.33
2024-02-08T13:15:33.124Z,82.54
2024-02-08T13:17:59.745Z,82.05
2024-02-08T13:20:26.297Z,82.12
2024-02-08T13:22:53.973Z,82.37
2024-02-08T13:25:20.465Z,82.81
2024-02-08T13:27:46.772Z,79.72
2024-02-08T13:30:17.402Z,81.58
2024-02-08T13:32:50.981Z,81.99
2024-02-08T13:35:20.810Z,80.13
2024-02-08T13:37:51.647Z,80.88
2024-02-08T13:40:23.178Z,81.40
2024-02-08T13:42:55.239Z,82.11
2024-02-08T13:45:26.477Z,81.16
2024-02-08T13:47:57.558Z,80.86
2024-02-08T13:50:31.654Z,81.03
2024-02-08T13:52:59.879Z,82.15
2024-02-08T13:58:01.987Z,82.40
2024-02-08T14:00:28.634Z,81.56
2024-02-08T14:02:55.745Z,81.27
2024-02-08T14:05:27.113Z,82.42
2024-02-08T14:07:55.911Z,81.81
2024-02-08T14:10:29.550Z,82.58
2024-02-08T14:13:19.017Z,82.55
2024-02-08T14:15:47.506Z,82.90
2024-02-08T14:18:27.416Z,81.57
2024-02-08T14:21:01.696Z,83.04
2024-02-08T14:23:32.125Z,81.67
2024-02-08T14:26:08.349Z,82.02
2024-02-08T14:28:47.041Z,81.96
2024-02-08T14:31:13.982Z,81.83
2024-02-08T14:33:46.935Z,82.55
2024-02-08T14:36:14.821Z,83.04
2024-02-08T14:38:42.205Z,82.57
2024-02-08T14:41:09.469Z,82.21
2024-02-08T14:43:36.254Z,82.59
2024-02-08T14:46:03.265Z,82.68
2024-02-08T14:48:30.101Z,83.70
2024-02-08T14:51:17.817Z,82.73
2024-02-08T14:53:45.871Z,82.99
2024-02-08T14:56:19.963Z,83.05
2024-02-08T14:59:10.813Z,82.80
2024-02-08T15:01:41.329Z,83.72
2024-02-08T15:04:18.043Z,84.03
2024-02-08T15:07:05.314Z,84.11
2024-02-08T15:09:49.412Z,83.99
2024-02-08T15:12:18.888Z,84.42
2024-02-08T15:14:46.625Z,84.52
2024-02-08T15:17:13.039Z,84.78
2024-02-08T15:19:48.979Z,84.36
2024-02-08T15:22:31.180Z,84.42
2024-02-08T15:25:07.461Z,85.82
2024-02-08T15:27:53.082Z,85.22
2024-02-08T15:30:37.422Z,85.20
2024-02-08T15:33:18.519Z,85.44
2024-02-08T15:35:53.169Z,84.85
2024-02-08T15:38:34.579Z,84.88
2024-02-08T15:41:21.623Z,85.57
2024-02-08T15:43:49.926Z,85.66
2024-02-08T15:46:16.909Z,85.14
2024-02-08T15:48:46.442Z,85.24
2024-02-08T15:51:14.141Z,85.72
2024-02-08T15:53:49.895Z,85.59
2024-02-08T15:56:20.790Z,85.50
2024-02-08T15:58:48.195Z,85.22
2024-02-08T16:01:15.083Z,85.04
2024-02-08T16:03:54.715Z,85.63
2024-02-08T16:06:40.684Z,86.34
2024-02-08T16:09:09.238Z,85.50
2024-02-08T16:11:35.659Z,86.60
2024-02-08T16:14:05.984Z,85.90
2024-02-08T16:16:32.780Z,86.21
2024-02-08T16:19:18.487Z,86.27
2024-02-08T16:21:44.893Z,85.71
2024-02-08T16:24:14.977Z,86.47
2024-02-08T16:26:45.551Z,86.39
2024-02-08T16:29:17.947Z,86.96
2024-02-08T16:31:46.078Z,86.53
2024-02-08T16:34:25.900Z,87.37
2024-02-08T16:37:04.414Z,86.85
2024-02-08T16:39:55.695Z,87.27
2024-02-08T16:42:25.056Z,87.02
2024-02-08T16:44:52.269Z,87.23
2024-02-08T16:47:42.808Z,86.91
2024-02-08T16:50:18.918Z,86.76
2024-02-08T16:52:50.629Z,87.05
2024-02-08T16:55:23.871Z,87.07
2024-02-08T16:58:02.030Z,87.46
2024-02-08T17:00:40.084Z,87.51
2024-02-08T17:03:09.332Z,87.54
2024-02-08T17:05:54.619Z,87.54
2024-02-08T17:08:31.059Z,87.85
2024-02-08T17:11:02.630Z,87.67
2024-02-08T17:13:31.398Z,87.47
2024-02-08T17:16:05.279Z,87.89
2024-02-08T17:18:45.522Z,87.77
2024-02-08T17:21:37.014Z,87.81
2024-02-08T17:24:09.035Z,87.66
2024-02-08T17:26:36.390Z,87.76
2024-02-08T17:29:11.494Z,88.00
2024-02-08T17:31:44.266Z,87.79
2024-02-08T17:34:11.860Z,87.96
2024-02-08T17:36:45.449Z,87.93
2024-02-08T17:39:12.810Z,87.74
2024-02-08T17:41:39.509Z,87.80
2024-02-08T17:44:06.220Z,88.24
2024-02-08T17:46:39.087Z,87.46
2024-02-08T17:49:06.470Z,88.04
2024-02-08T17:51:33.287Z,87.89
2024-02-08T17:54:08.507Z,87.77
2024-02-08T17:56:35.849Z,87.77
2024-02-08T17:59:09.774Z,87.86
2024-02-08T18:01:55.047Z,88.26
2024-02-08T18:04:26.781Z,87.87
2024-02-08T18:06:59.970Z,88.14
2024-02-08T18:09:34.428Z,87.95
2024-02-08T18:12:13.010Z,88.09
2024-02-08T18:14:41.507Z,88.05
2024-02-08T18:17:16.209Z,87.85
2024-02-08T18:19:46.716Z,87.25
2024-02-08T18:22:14.778Z,87.06
2024-02-08T18:24:42.174Z,87.43
2024-02-08T18:27:08.623Z,87.37
2024-02-08T18:29:37.060Z,87.62
2024-02-08T18:32:03.671Z,88.07
2024-02-08T18:34:33.155Z,88.21
2024-02-08T18:37:01.797Z,88.53
2024-02-08T18:39:28.299Z,88.59
2024-02-08T18:41:59.779Z,88.53
2024-02-08T18:44:26.245Z,88.45
2024-02-08T18:46:54.021Z,89.48
2024-02-08T18:49:22.660Z,88.57
2024-02-08T18:51:49.353Z,89.28
2024-02-08T18:54:21.558Z,89.51
2024-02-08T18:56:48.633Z,90.00
2024-02-08T18:59:15.208Z,90.57
2024-02-08T19:01:51.225Z,89.90
2024-02-08T19:04:25.625Z,90.56
2024-02-08T19:06:52.364Z,91.00
2024-02-08T19:09:27.547Z,90.21
2024-02-08T19:11:54.783Z,91.92
2024-02-08T19:14:23.203Z,90.57
2024-02-08T19:16:50.433Z,90.15
2024-02-08T19:19:18.447Z,89.76
2024-02-08T19:21:46.781Z,90.03
2024-02-08T19:24:23.494Z,89.57
2024-02-08T19:26:50.328Z,90.39
2024-02-08T19:29:18.573Z,89.77
2024-02-08T19:31:47.926Z,89.37
2024-02-08T19:34:22.705Z,89.10
2024-02-08T19:36:59.482Z,88.90
2024-02-08T19:39:29.260Z,89.44
2024-02-08T19:41:56.807Z,89.68
2024-02-08T19:44:27.148Z,88.80
2024-02-08T19:47:01.151Z,89.10
2024-02-08T19:49:35.146Z,89.30
2024-02-08T19:52:01.970Z,89.38
2024-02-08T19:54:30.758Z,89.47
2024-02-08T19:57:04.256Z,89.27
2024-02-08T19:59:32.690Z,88.98
2024-02-08T20:01:59.297Z,89.33
2024-02-08T20:04:25.953Z,90.18
2024-02-08T20:06:56.382Z,89.74
2024-02-08T20:09:23.259Z,89.56
2024-02-08T20:11:53.624Z,89.97
2024-02-08T20:14:23.614Z,88.75
2024-02-08T20:16:51.585Z,89.33
2024-02-08T20:19:19.451Z,88.92
2024-02-08T20:21:46.268Z,89.02
2024-02-08T20:24:15.509Z,88.07
2024-02-08T20:26:49.090Z,89.46
2024-02-08T20:29:16.224Z,89.83
2024-02-08T20:31:45.924Z,89.76
2024-02-08T20:34:13.695Z,89.74
2024-02-08T20:36:40.327Z,89.75
2024-02-08T20:39:19.544Z,89.56
2024-02-08T20:41:50.877Z,88.28
2024-02-08T20:44:18.783Z,88.72
2024-02-08T20:46:45.505Z,88.97
2024-02-08T20:49:14.812Z,89.36
2024-02-08T20:51:41.885Z,88.29
2024-02-08T20:54:08.239Z,89.28
2024-02-08T20:56:44.720Z,90.06
2024-02-08T20:59:11.872Z,88.94
2024-02-08T21:01:38.685Z,88.64
2024-02-08T21:04:08.324Z,89.99
2024-02-08T21:06:35.794Z,89.94
2024-02-08T21:09:08.677Z,88.83
2024-02-08T21:11:35.036Z,90.02
2024-02-08T21:14:01.633Z,89.20
2024-02-08T21:16:31.001Z,89.77
2024-02-08T21:18:58.120Z,89.51
2024-02-08T21:21:24.535Z,90.40
2024-02-08T21:23:52.157Z,89.24
2024-02-08T21:26:23.082Z,89.82
2024-02-08T21:28:51.982Z,90.14
2024-02-08T21:31:19.478Z,89.93
2024-02-08T21:33:51.588Z,89.16
2024-02-08T21:36:19.170Z,89.16
2024-02-08T21:38:50.067Z,88.65
2024-02-08T21:41:17.062Z,89.94
2024-02-08T21:43:43.989Z,89.89
2024-02-08T21:46:14.548Z,88.80
2024-02-08T21:48:45.379Z,89.08
2024-02-08T21:51:13.325Z,89.59
2024-02-08T21:53:40.041Z,89.36
2024-02-08T21:56:17.566Z,89.42
2024-02-08T21:58:45.240Z,88.77
2024-02-08T22:03:57.960Z,89.37
2024-02-08T22:06:25.311Z,87.94
2024-02-08T22:08:52.035Z,88.64
2024-02-08T22:11:18.438Z,89.58
2024-02-08T22:13:47.212Z,90.45
2024-02-08T22:16:16.597Z,89.52
2024-02-08T22:18:47.562Z,88.95
2024-02-08T22:21:18.116Z,89.80
2024-02-08T22:23:45.051Z,89.30
2024-02-08T22:26:14.093Z,89.14
2024-02-08T22:28:43.853Z,88.85
2024-02-08T22:31:12.624Z,90.15
2024-02-08T22:33:39.345Z,89.60
2024-02-08T22:36:07.943Z,88.95
2024-02-08T22:38:34.775Z,89.31
2024-02-08T22:41:01.498Z,90.70
2024-02-08T22:43:28.183Z,88.87
2024-02-08T22:45:54.585Z,89.90
2024-02-08T22:48:21.300Z,90.46
2024-02-08T22:50:48.974Z,89.63
2024-02-08T22:53:16.060Z,90.88
2024-02-08T22:55:43.440Z,89.95
2024-02-08T22:58:13.665Z,88.39
2024-02-08T23:00:49.556Z,89.28
2024-02-08T23:03:16.917Z,89.75
2024-02-08T23:05:51.913Z,90.26
2024-02-08T23:08:18.296Z,89.43
2024-02-08T23:10:44.896Z,91.06
2024-02-08T23:13:12.085Z,90.66
2024-02-08T23:15:42.742Z,90.09
2024-02-08T23:18:15.715Z,89.29
2024-02-08T23:20:44.061Z,89.40
2024-02-08T23:23:12.220Z,90.55
2024-02-08T23:25:39.103Z,90.21
2024-02-08T23:28:05.985Z,90.71
2024-02-08T23:30:33.901Z,90.14
2024-02-08T23:33:04.387Z,90.64
2024-02-08T23:35:31.135Z,91.33
2024-02-08T23:38:01.065Z,91.27
2024-02-08T23:40:28.733Z,90.94
2024-02-08T23:42:59.262Z,90.53
2024-02-08T23:45:26.191Z,90.25
2024-02-08T23:47:56.110Z,90.01
2024-02-08T23:50:23.181Z,90.43
2024-02-08T23:52:49.952Z,90.45
2024-02-08T23:55:19.957Z,89.54
2024-02-08T23:57:47.436Z,90.07
